Meteorología y climatología de Navarra
Datos de la estación - Meteo Navarra

Estación de Urbasa GN

Altitud 886 m.


Datos desde el 11/01/2019 hasta el 12/01/2019 en horario solar
Los datos son PROVISIONALES

Anterior Página 1 de 1 Siguiente Descargar: Formato para Excel 2000 o superior   Formato csv   Formato para OpenOffice Calc
Fecha Temperatura Humedad relativa Radiación global Insolación Precipitación Velocidad viento 10 m Velocidad viento 10 m Dirección viento 10 m
ºC % W/m² s l/m² m/s km/h º
11/01/2019 0:00 -2.2 91 0.0 0 0.0 3.0 10.7 1
11/01/2019 0:10 -2.3 91 0.0 0 0.0 2.9 10.4 6
11/01/2019 0:20 -2.2 92 0.0 0 0.0 3.0 10.7 360
11/01/2019 0:30 -2.3 92 0.0 0 0.0 3.0 10.8 6
11/01/2019 0:40 -2.4 92 0.0 0 0.0 2.4 8.7 3
11/01/2019 0:50 -2.3 92 0.0 0 0.0 4.1 14.7 4
11/01/2019 1:00 -2.3 92 0.0 0 0.0 3.0 10.7 360
11/01/2019 1:10 -2.3 92 0.0 0 0.0 2.5 9.1 355
11/01/2019 1:20 -2.3 91 0.0 0 0.0 3.7 13.2 349
11/01/2019 1:30 -2.2 89 0.0 0 0.0 3.2 11.4 352
11/01/2019 1:40 -2.2 89 0.0 0 0.0 2.3 8.1 349
11/01/2019 1:50 -2.3 88 0.0 0 0.0 3.1 11.3 8
11/01/2019 2:00 -2.3 88 0.0 0 0.0 2.4 8.6 21
11/01/2019 2:10 -2.4 90 0.0 0 0.0 3.0 10.9 15
11/01/2019 2:20 -2.4 89 0.0 0 0.0 3.3 11.9 8
11/01/2019 2:30 -2.5 89 0.0 0 0.0 3.6 13.0 359
11/01/2019 2:40 -2.6 90 0.0 0 0.0 3.4 12.2 2
11/01/2019 2:50 -2.6 92 0.0 0 0.0 3.5 12.7 1
11/01/2019 3:00 -2.7 92 0.0 0 0.0 2.6 9.5 357
11/01/2019 3:10 -2.7 92 0.0 0 0.0 3.1 11.1 5
11/01/2019 3:20 -2.8 92 0.0 0 0.0 3.1 11.2 1
11/01/2019 3:30 -2.9 92 0.0 0 0.0 3.6 12.9 346
11/01/2019 3:40 -2.8 93 0.0 0 0.0 2.5 9.1 351
11/01/2019 3:50 -2.8 93 0.0 0 0.0 3.0 10.7 353
11/01/2019 4:00 -2.9 92 0.0 0 0.0 2.8 10.1 5
11/01/2019 4:10 -2.9 93 0.0 0 0.0 3.5 12.5 360
11/01/2019 4:20 -3.0 93 0.0 0 0.0 3.2 11.5 9
11/01/2019 4:30 -3.0 92 0.0 0 0.0 3.2 11.4 0
11/01/2019 4:40 -2.9 91 0.0 0 0.0 3.4 12.2 6
11/01/2019 4:50 -2.9 91 0.0 0 0.0 3.3 11.8 2
11/01/2019 5:00 -2.9 91 0.0 0 0.0 3.2 11.3 1
11/01/2019 5:10 -2.8 90 0.0 0 0.0 3.6 12.8 359
11/01/2019 5:20 -2.7 91 0.0 0 0.0 3.3 12.0 2
11/01/2019 5:30 -2.7 89 0.0 0 0.0 3.7 13.4 9
11/01/2019 5:40 -2.6 89 0.0 0 0.0 3.6 13.1 1
11/01/2019 5:50 -2.6 89 0.0 0 0.0 3.4 12.4 6
11/01/2019 6:00 -2.6 89 0.0 0 0.0 3.0 10.8 358
11/01/2019 6:10 -2.6 90 0.0 0 0.0 3.2 11.7 2
11/01/2019 6:20 -2.6 90 0.0 0 0.0 2.7 9.6 360
11/01/2019 6:30 -2.6 90 0.0 0 0.0 4.1 14.9 1
11/01/2019 6:40 -2.5 91 0.0 0 0.0 3.2 11.4 11
11/01/2019 6:50 -2.5 91 0.0 0 0.0 3.2 11.3 5
11/01/2019 7:00 -2.5 91 0.0 0 0.0 2.9 10.6 5
11/01/2019 7:10 -2.4 90 0.0 0 0.0 3.5 12.6 1
11/01/2019 7:20 -2.5 91 0.0 0 0.0 3.2 11.6 4
11/01/2019 7:30 -2.4 91 0.0 0 0.0 2.5 8.8 3
11/01/2019 7:40 -2.4 90 0.0 0 0.0 3.2 11.7 358
11/01/2019 7:50 -2.4 90 0.0 0 0.0 3.5 12.6 360
11/01/2019 8:00 -2.4 91 4.5 0 0.0 3.4 12.2 360
11/01/2019 8:10 -2.4 91 17.0 0 0.0 3.7 13.2 354
11/01/2019 8:20 -2.4 91 42.6 188 0.0 2.8 9.9 355
11/01/2019 8:30 -2.4 91 99.1 538 0.0 3.4 12.2 355
11/01/2019 8:40 -2.2 92 122.5 552 0.0 3.5 12.4 1
11/01/2019 8:50 -2.3 93 129.5 498 0.0 3.2 11.4 351
11/01/2019 9:00 -2.3 93 145.1 454 0.0 3.3 11.8 335
11/01/2019 9:10 -2.3 93 162.7 460 0.0 3.5 12.5 346
11/01/2019 9:20 -2.3 93 156.7 390 0.0 2.9 10.3 344
11/01/2019 9:30 -2.1 92 193.6 398 0.0 3.2 11.4 337
11/01/2019 9:40 -2.1 92 162.9 264 0.0 3.4 12.4 354
11/01/2019 9:50 -2.1 93 165.5 242 0.0 3.7 13.1 342
11/01/2019 10:00 -2.0 92 136.3 82 0.0 3.5 12.6 338
11/01/2019 10:10 -2.0 90 183.8 236 0.0 3.7 13.2 330
11/01/2019 10:20 -1.9 90 141.7 98 0.0 3.5 12.7 329
11/01/2019 10:30 -1.7 88 305.3 404 0.0 3.3 11.7 332
11/01/2019 10:40 -1.4 86 122.5 0 0.0 3.3 11.8 332
11/01/2019 10:50 -1.5 84 101.1 0 0.0 3.4 12.2 336
11/01/2019 11:00 -1.5 83 94.2 0 0.0 3.5 12.6 330
11/01/2019 11:10 -1.3 81 100.9 0 0.0 3.5 12.5 333
11/01/2019 11:20 -1.1 80 108.6 0 0.0 2.7 9.6 338
11/01/2019 11:30 -1.1 78 127.6 0 0.0 3.1 11.1 331
11/01/2019 11:40 -0.8 73 163.6 0 0.0 3.2 11.4 335
11/01/2019 11:50 -0.6 68 190.6 38 0.0 2.9 10.4 333
11/01/2019 12:00 -0.4 65 273.1 390 0.0 2.9 10.4 346
11/01/2019 12:10 -0.1 62 250.0 270 0.0 3.3 11.9 336
11/01/2019 12:20 -0.1 62 280.5 296 0.0 3.3 12.0 338
11/01/2019 12:30 0.1 61 383.7 524 0.0 3.7 13.4 330
11/01/2019 12:40 0.3 61 468.3 530 0.0 3.6 12.9 325
11/01/2019 12:50 0.5 61 391.2 498 0.0 3.7 13.2 326
11/01/2019 13:00 0.4 63 192.7 74 0.0 3.9 14.0 319
11/01/2019 13:10 0.3 65 161.8 40 0.0 3.5 12.5 346
11/01/2019 13:20 0.3 65 186.1 0 0.0 3.6 13.0 335
11/01/2019 13:30 0.5 66 165.0 72 0.0 3.1 11.2 354
11/01/2019 13:40 0.4 66 158.0 22 0.0 3.5 12.7 356
11/01/2019 13:50 0.4 66 216.5 228 0.0 3.3 11.8 358
11/01/2019 14:00 0.6 67 286.8 486 0.0 3.4 12.2 351
11/01/2019 14:10 0.9 67 361.1 600 0.0 3.7 13.2 356
11/01/2019 14:20 0.9 68 426.5 596 0.0 4.0 14.2 341
11/01/2019 14:30 1.2 68 258.9 414 0.0 3.2 11.7 355
11/01/2019 14:40 0.8 69 162.2 258 0.0 3.6 12.9 353
11/01/2019 14:50 0.9 70 176.8 310 0.0 3.7 13.4 354
11/01/2019 15:00 1.0 70 209.4 342 0.0 3.4 12.2 5
11/01/2019 15:10 0.9 71 152.1 200 0.0 3.5 12.7 359
11/01/2019 15:20 1.0 73 184.1 438 0.0 2.7 9.6 355
11/01/2019 15:30 0.9 74 124.6 190 0.0 2.4 8.7 359
11/01/2019 15:40 0.7 75 59.0 22 0.0 2.9 10.6 12
11/01/2019 15:50 0.5 76 41.8 2 0.0 2.7 9.6 358
11/01/2019 16:00 0.5 77 31.4 0 0.0 3.0 10.7 351
11/01/2019 16:10 0.4 78 31.4 0 0.0 2.5 9.1 349
11/01/2019 16:20 0.3 79 19.1 0 0.0 2.5 8.9 358
11/01/2019 16:30 0.1 79 15.5 0 0.0 2.6 9.4 354
11/01/2019 16:40 0.1 79 1.6 0 0.0 3.3 11.7 356
11/01/2019 16:50 0.0 80 0.0 0 0.0 2.8 10.2 359
11/01/2019 17:00 -0.1 81 0.0 0 0.0 2.7 9.7 351
11/01/2019 17:10 -0.1 81 0.0 0 0.0 2.4 8.6 0
11/01/2019 17:20 -0.2 82 0.0 0 0.0 2.7 9.9 358
11/01/2019 17:30 -0.2 82 0.0 0 0.0 2.7 9.6 356
11/01/2019 17:40 -0.2 81 0.0 0 0.0 2.6 9.5 354
11/01/2019 17:50 -0.2 82 0.0 0 0.0 2.6 9.4 356
11/01/2019 18:00 -0.3 81 0.0 0 0.0 2.7 9.6 2
11/01/2019 18:10 -0.2 81 0.0 0 0.0 3.2 11.4 358
11/01/2019 18:20 -0.3 81 0.0 0 0.0 2.9 10.3 357
11/01/2019 18:30 -0.4 81 0.0 0 0.0 3.2 11.6 6
11/01/2019 18:40 -0.4 81 0.0 0 0.0 2.9 10.3 0
11/01/2019 18:50 -0.4 81 0.0 0 0.0 2.9 10.4 1
11/01/2019 19:00 -0.4 82 0.0 0 0.0 2.8 10.0 358
11/01/2019 19:10 -0.4 82 0.0 0 0.0 3.2 11.4 351
11/01/2019 19:20 -0.5 82 0.0 0 0.0 2.8 10.2 353
11/01/2019 19:30 -0.5 84 0.0 0 0.0 3.1 11.0 349
11/01/2019 19:40 -0.6 84 0.0 0 0.0 2.5 9.0 350
11/01/2019 19:50 -0.6 86 0.0 0 0.0 2.2 7.9 339
11/01/2019 20:00 -0.8 89 0.0 0 0.0 2.0 7.2 335
11/01/2019 20:10 -1.0 91 0.0 0 0.0 2.4 8.6 347
11/01/2019 20:20 -1.0 93 0.0 0 0.0 1.1 3.9 340
11/01/2019 20:30 -1.0 93 0.0 0 0.0 2.0 7.1 347
11/01/2019 20:40 -0.8 92 0.0 0 0.0 2.1 7.6 354
11/01/2019 20:50 -0.7 90 0.0 0 0.0 1.8 6.3 353
11/01/2019 21:00 -0.8 90 0.0 0 0.0 2.1 7.5 345
11/01/2019 21:10 -0.6 91 0.0 0 0.0 2.0 7.1 351
11/01/2019 21:20 -0.7 90 0.0 0 0.0 2.0 7.3 347
11/01/2019 21:30 -0.6 91 0.0 0 0.0 1.9 6.7 356
11/01/2019 21:40 -0.6 92 0.0 0 0.0 1.4 4.9 352
11/01/2019 21:50 -0.8 92 0.0 0 0.0 2.3 8.4 342
11/01/2019 22:00 -0.8 93 0.0 0 0.0 2.0 7.3 334
11/01/2019 22:10 -0.8 93 0.0 0 0.0 2.1 7.5 342
11/01/2019 22:20 -0.9 94 0.0 0 0.0 1.4 4.9 348
11/01/2019 22:30 -0.9 94 0.0 0 0.0 2.0 7.1 326
11/01/2019 22:40 -0.9 94 0.0 0 0.0 1.9 6.9 339
11/01/2019 22:50 -0.8 95 0.0 0 0.0 1.7 6.1 347
11/01/2019 23:00 -0.8 96 0.0 0 0.0 2.4 8.6 352
11/01/2019 23:10 -0.9 96 0.0 0 0.0 2.3 8.2 346
11/01/2019 23:20 -0.8 97 0.0 0 0.0 1.3 4.8 2
11/01/2019 23:30 -0.9 96 0.0 0 0.0 2.1 7.6 3
11/01/2019 23:40 -0.9 95 0.0 0 0.0 1.7 6.3 350
11/01/2019 23:50 -0.8 93 0.0 0 0.0 2.2 7.8 352
Anterior Página 1 de 1 Siguiente

NOTA: Tipo de datos según el color:
   - Valores diarios o 10 minutos correctos
   - Valores diarios calculados a partir de un número de datos 10 minutos menor que 144 y mayor que 120, o de un número de datos semihorarios menor que 48 y mayor que 40 (caso de las estaciones de Riegos de Navarra y del MARM)
   - Valores diez minutos estimados


Contacto        Enlaces        Aviso legal